createdAt,value
2018-11-04T00:01:27.725Z,54.09
2018-11-04T00:03:56.214Z,53.79
2018-11-04T00:06:24.686Z,54.14
2018-11-04T00:08:53.247Z,54.20
2018-11-04T00:11:21.944Z,54.01
2018-11-04T00:13:50.430Z,53.94
2018-11-04T00:16:19.218Z,54.54
2018-11-04T00:18:47.594Z,53.57
2018-11-04T00:21:16.020Z,54.13
2018-11-04T00:23:44.804Z,53.97
2018-11-04T00:26:13.212Z,54.25
2018-11-04T00:28:41.697Z,54.09
2018-11-04T00:31:10.159Z,53.81
2018-11-04T00:33:38.542Z,54.54
2018-11-04T00:36:06.995Z,54.07
2018-11-04T00:38:35.375Z,54.27
2018-11-04T00:41:04.205Z,54.30
2018-11-04T00:43:33.876Z,55.02
2018-11-04T00:46:02.566Z,54.28
2018-11-04T00:48:31.022Z,54.19
2018-11-04T00:50:59.476Z,54.36
2018-11-04T00:53:27.932Z,54.59
2018-11-04T00:55:56.401Z,54.10
2018-11-04T00:58:25.672Z,54.26
2018-11-04T01:00:54.457Z,54.11
2018-11-04T01:03:23.282Z,54.73
2018-11-04T01:05:58.399Z,54.61
2018-11-04T01:08:26.871Z,54.62
2018-11-04T01:10:55.293Z,54.04
2018-11-04T01:13:23.746Z,54.50
2018-11-04T01:15:52.927Z,54.22
2018-11-04T01:18:21.627Z,54.28
2018-11-04T01:20:50.017Z,54.62
2018-11-04T01:23:18.556Z,54.42
2018-11-04T01:25:47.027Z,54.72
2018-11-04T01:28:15.541Z,54.09
2018-11-04T01:30:43.961Z,54.46
2018-11-04T01:33:12.419Z,54.42
2018-11-04T01:35:40.932Z,54.45
2018-11-04T01:38:09.363Z,54.22
2018-11-04T01:40:37.869Z,54.53
2018-11-04T01:43:06.575Z,54.57
2018-11-04T01:45:36.352Z,54.30
2018-11-04T01:48:04.865Z,54.05
2018-11-04T01:50:33.310Z,54.46
2018-11-04T01:53:01.991Z,54.39
2018-11-04T01:55:30.415Z,54.66
2018-11-04T01:57:58.794Z,54.94
2018-11-04T02:00:27.280Z,54.17
2018-11-04T02:02:56.211Z,54.34
2018-11-04T02:05:24.654Z,54.99
2018-11-04T02:07:53.048Z,54.65
2018-11-04T02:10:21.414Z,54.54
2018-11-04T02:12:51.267Z,54.91
2018-11-04T02:15:19.702Z,55.15
2018-11-04T02:17:48.124Z,54.91
2018-11-04T02:20:16.501Z,54.86
2018-11-04T02:22:44.949Z,54.62
2018-11-04T02:25:13.898Z,54.98
2018-11-04T02:27:43.017Z,55.07
2018-11-04T02:30:13.125Z,54.80
2018-11-04T02:32:42.966Z,55.02
2018-11-04T02:35:11.779Z,54.94
2018-11-04T02:37:44.022Z,55.39
2018-11-04T02:40:12.870Z,54.90
2018-11-04T02:42:41.368Z,54.81
2018-11-04T02:45:10.139Z,55.07
2018-11-04T02:47:38.598Z,55.08
2018-11-04T02:50:08.728Z,54.81
2018-11-04T02:52:37.166Z,55.55
2018-11-04T02:55:06.215Z,55.02
2018-11-04T02:57:36.452Z,54.80
2018-11-04T03:00:07.189Z,55.30
2018-11-04T03:02:35.602Z,55.46
2018-11-04T03:05:04.908Z,54.72
2018-11-04T03:07:33.312Z,55.08
2018-11-04T03:10:03.477Z,55.50
2018-11-04T03:12:31.928Z,55.00
2018-11-04T03:15:01.521Z,55.06
2018-11-04T03:17:29.988Z,55.05
2018-11-04T03:19:58.419Z,54.90
2018-11-04T03:22:26.855Z,55.16
2018-11-04T03:24:56.229Z,55.14
2018-11-04T03:27:25.138Z,55.16
2018-11-04T03:29:54.411Z,55.19
2018-11-04T03:32:22.964Z,55.23
2018-11-04T03:34:52.942Z,55.47
2018-11-04T03:37:21.610Z,55.75
2018-11-04T03:39:50.462Z,55.49
2018-11-04T03:42:19.436Z,55.78
2018-11-04T03:44:47.977Z,55.68
2018-11-04T03:47:16.459Z,55.20
2018-11-04T03:49:44.966Z,55.15
2018-11-04T03:52:13.463Z,55.84
2018-11-04T03:54:41.936Z,55.43
2018-11-04T03:57:10.348Z,55.61
2018-11-04T03:59:38.787Z,55.75
2018-11-04T04:05:14.591Z,55.72
2018-11-04T04:07:43.121Z,55.70
2018-11-04T04:10:11.601Z,55.35
2018-11-04T04:12:40.594Z,56.11
2018-11-04T04:15:10.104Z,55.76
2018-11-04T04:17:38.667Z,55.79
2018-11-04T04:20:07.692Z,55.70
2018-11-04T04:22:36.292Z,55.71
2018-11-04T04:25:05.714Z,55.73
2018-11-04T04:27:34.159Z,55.87
2018-11-04T04:30:02.669Z,55.89
2018-11-04T04:32:31.116Z,55.88
2018-11-04T04:35:00.628Z,56.07
2018-11-04T04:37:29.013Z,55.72
2018-11-04T04:39:57.737Z,55.90
2018-11-04T04:42:26.189Z,55.48
2018-11-04T04:44:54.626Z,55.78
2018-11-04T04:47:23.058Z,54.95
2018-11-04T04:49:51.472Z,55.83
2018-11-04T04:52:19.865Z,55.86
2018-11-04T04:54:48.242Z,56.00
2018-11-04T04:57:16.676Z,56.23
2018-11-04T04:59:45.728Z,55.86
2018-11-04T05:02:14.161Z,55.85
2018-11-04T05:04:42.550Z,55.79
2018-11-04T05:07:10.997Z,55.63
2018-11-04T05:09:39.388Z,56.25
2018-11-04T05:12:07.969Z,55.96
2018-11-04T05:14:36.777Z,55.93
2018-11-04T05:17:05.719Z,55.95
2018-11-04T05:19:34.093Z,56.34
2018-11-04T05:22:02.717Z,56.20
2018-11-04T05:24:31.116Z,56.06
2018-11-04T05:26:59.638Z,56.24
2018-11-04T05:29:28.903Z,56.34
2018-11-04T05:31:57.328Z,56.09
2018-11-04T05:34:25.758Z,56.43
2018-11-04T05:36:54.160Z,55.76
2018-11-04T05:39:22.561Z,55.84
2018-11-04T05:41:50.543Z,56.29
2018-11-04T05:44:18.370Z,56.38
2018-11-04T05:46:46.190Z,56.54
2018-11-04T05:49:13.998Z,56.21
2018-11-04T05:51:42.255Z,56.44
2018-11-04T05:54:10.933Z,56.61
2018-11-04T05:56:39.338Z,56.74
2018-11-04T05:59:07.808Z,56.89
2018-11-04T06:01:36.209Z,56.53
2018-11-04T06:04:04.868Z,56.68
2018-11-04T06:06:33.285Z,56.83
2018-11-04T06:09:02.391Z,56.37
2018-11-04T06:11:30.749Z,56.50
2018-11-04T06:13:59.120Z,56.71
2018-11-04T06:16:27.501Z,56.46
2018-11-04T06:18:55.926Z,56.52
2018-11-04T06:21:24.437Z,56.41
2018-11-04T06:23:52.880Z,56.42
2018-11-04T06:26:21.598Z,56.72
2018-11-04T06:28:50.045Z,56.79
2018-11-04T06:31:18.538Z,56.84
2018-11-04T06:33:46.975Z,56.60
2018-11-04T06:36:15.379Z,57.28
2018-11-04T06:38:43.766Z,56.65
2018-11-04T06:41:12.317Z,57.07
2018-11-04T06:43:40.587Z,56.95
2018-11-04T06:46:09.000Z,56.46
2018-11-04T06:48:37.981Z,56.89
2018-11-04T06:51:06.584Z,56.80
2018-11-04T06:53:34.984Z,57.09
2018-11-04T06:56:03.481Z,57.13
2018-11-04T06:58:31.860Z,57.23
2018-11-04T07:01:00.525Z,57.06
2018-11-04T07:03:28.943Z,57.08
2018-11-04T07:05:57.438Z,57.04
2018-11-04T07:08:26.241Z,57.16
2018-11-04T07:10:54.751Z,57.27
2018-11-04T07:13:23.223Z,57.38
2018-11-04T07:15:51.576Z,57.63
2018-11-04T07:18:19.929Z,57.36
2018-11-04T07:20:48.622Z,57.37
2018-11-04T07:23:17.018Z,57.32
2018-11-04T07:25:45.625Z,57.42
2018-11-04T07:28:14.122Z,57.06
2018-11-04T07:30:42.518Z,57.06
2018-11-04T07:33:11.301Z,57.12
2018-11-04T07:35:39.706Z,56.71
2018-11-04T07:38:08.109Z,57.00
2018-11-04T07:40:36.589Z,56.52
2018-11-04T07:43:05.947Z,56.99
2018-11-04T07:45:34.365Z,56.29
2018-11-04T07:48:02.790Z,56.71
2018-11-04T07:50:33.561Z,56.80
2018-11-04T07:53:02.936Z,56.27
2018-11-04T07:55:31.364Z,56.55
2018-11-04T07:57:59.713Z,55.89
2018-11-04T08:00:31.179Z,55.89
2018-11-04T08:02:58.992Z,56.26
2018-11-04T08:05:26.876Z,55.85
2018-11-04T08:07:54.798Z,55.99
2018-11-04T08:10:23.095Z,55.62
2018-11-04T08:12:51.554Z,54.70
2018-11-04T08:15:19.919Z,54.56
2018-11-04T08:17:48.309Z,55.20
2018-11-04T08:20:16.828Z,54.49
2018-11-04T08:22:45.233Z,54.66
2018-11-04T08:25:14.005Z,53.70
2018-11-04T08:27:42.549Z,53.44
2018-11-04T08:30:11.052Z,53.98
2018-11-04T08:32:39.467Z,53.88
2018-11-04T08:35:07.885Z,53.23
2018-11-04T08:37:36.343Z,53.29
2018-11-04T08:40:05.937Z,52.24
2018-11-04T08:42:34.196Z,52.72
2018-11-04T08:45:03.895Z,51.79
2018-11-04T08:47:32.315Z,51.66
2018-11-04T08:50:00.769Z,51.14
2018-11-04T08:52:29.343Z,51.09
2018-11-04T08:54:57.802Z,51.61
2018-11-04T08:57:26.388Z,50.62
2018-11-04T08:59:54.942Z,51.34
2018-11-04T09:02:23.330Z,50.46
2018-11-04T09:04:52.012Z,50.36
2018-11-04T09:07:20.560Z,50.37
2018-11-04T09:09:49.801Z,49.98
2018-11-04T09:12:18.233Z,49.75
2018-11-04T09:14:46.703Z,49.42
2018-11-04T09:17:15.256Z,48.82
2018-11-04T09:19:43.813Z,48.62
2018-11-04T09:22:12.200Z,49.13
2018-11-04T09:24:40.860Z,48.79
2018-11-04T09:27:09.325Z,48.41
2018-11-04T09:29:37.937Z,48.26
2018-11-04T09:32:06.413Z,48.72
2018-11-04T09:34:35.021Z,48.56
2018-11-04T09:37:04.144Z,47.72
2018-11-04T09:39:32.595Z,48.44
2018-11-04T09:42:01.047Z,47.70
2018-11-04T09:44:29.675Z,47.60
2018-11-04T09:46:58.329Z,47.86
2018-11-04T09:49:26.857Z,47.75
2018-11-04T09:51:55.583Z,47.30
2018-11-04T09:54:24.018Z,47.73
2018-11-04T09:56:52.449Z,48.14
2018-11-04T09:59:20.892Z,48.28
2018-11-04T10:01:49.396Z,48.17
2018-11-04T10:04:17.779Z,47.58
2018-11-04T10:06:46.219Z,48.36
2018-11-04T10:09:15.253Z,48.09
2018-11-04T10:11:43.680Z,48.47
2018-11-04T10:14:17.590Z,47.99
2018-11-04T10:16:52.509Z,47.65
2018-11-04T10:19:30.975Z,47.57
2018-11-04T10:22:00.406Z,47.12
2018-11-04T10:24:28.823Z,46.87
2018-11-04T10:26:57.282Z,46.31
2018-11-04T10:29:25.672Z,46.72
2018-11-04T10:31:54.136Z,45.97
2018-11-04T10:34:22.461Z,46.22
2018-11-04T10:36:57.492Z,46.32
2018-11-04T10:39:29.677Z,46.03
2018-11-04T10:41:58.170Z,45.13
2018-11-04T10:44:26.587Z,45.42
2018-11-04T10:46:55.062Z,44.71
2018-11-04T10:49:23.507Z,44.61
2018-11-04T10:51:51.898Z,44.00
2018-11-04T10:54:20.326Z,43.38
2018-11-04T10:56:48.760Z,43.13
2018-11-04T10:59:17.241Z,42.91
2018-11-04T11:01:45.674Z,42.27
2018-11-04T11:04:14.064Z,42.22
2018-11-04T11:06:42.495Z,41.67
2018-11-04T11:09:11.034Z,42.15
2018-11-04T11:11:40.220Z,41.56
2018-11-04T11:14:08.677Z,41.26
2018-11-04T11:16:37.109Z,40.36
2018-11-04T11:19:06.828Z,40.22
2018-11-04T11:21:35.278Z,40.03
2018-11-04T11:24:03.723Z,40.15
2018-11-04T11:26:32.133Z,39.88
2018-11-04T11:29:00.535Z,39.74
2018-11-04T11:31:29.016Z,39.93
2018-11-04T11:33:57.850Z,39.43
2018-11-04T11:36:26.217Z,40.00
2018-11-04T11:38:54.599Z,38.70
2018-11-04T11:41:23.336Z,39.45
2018-11-04T11:43:51.704Z,38.27
2018-11-04T11:46:20.408Z,38.00
2018-11-04T11:48:48.865Z,38.61
2018-11-04T11:51:17.304Z,37.84
2018-11-04T11:53:46.012Z,37.53
2018-11-04T11:56:14.496Z,37.30
2018-11-04T11:58:42.889Z,37.93
2018-11-04T12:01:11.480Z,37.75
2018-11-04T12:03:39.896Z,37.26
2018-11-04T12:06:08.330Z,37.42
2018-11-04T12:08:36.776Z,36.63
2018-11-04T12:11:06.176Z,36.49
2018-11-04T12:13:34.636Z,37.70
2018-11-04T12:16:03.146Z,37.33
2018-11-04T12:18:31.694Z,36.77
2018-11-04T12:21:00.092Z,36.88
2018-11-04T12:23:28.729Z,37.22
2018-11-04T12:25:57.202Z,37.09
2018-11-04T12:28:25.587Z,37.28
2018-11-04T12:30:54.007Z,37.27
2018-11-04T12:33:22.388Z,37.57
2018-11-04T12:35:50.754Z,37.05
2018-11-04T12:38:19.164Z,38.38
2018-11-04T12:40:47.615Z,37.74
2018-11-04T12:43:16.080Z,37.87
2018-11-04T12:45:44.876Z,38.86
2018-11-04T12:48:20.015Z,38.20
2018-11-04T12:50:48.526Z,38.59
2018-11-04T12:53:17.682Z,38.51
2018-11-04T12:55:46.151Z,39.17
2018-11-04T12:58:14.619Z,39.76
2018-11-04T13:00:43.033Z,39.83
2018-11-04T13:03:11.392Z,39.22
2018-11-04T13:05:39.826Z,39.46
2018-11-04T13:08:08.355Z,39.62
2018-11-04T13:10:36.902Z,40.71
2018-11-04T13:13:06.437Z,39.86
2018-11-04T13:15:34.987Z,41.08
2018-11-04T13:18:03.693Z,40.26
2018-11-04T13:20:32.145Z,41.13
2018-11-04T13:23:00.896Z,40.83
2018-11-04T13:25:29.311Z,41.35
2018-11-04T13:27:58.038Z,41.14
2018-11-04T13:30:26.461Z,41.86
2018-11-04T13:32:54.869Z,41.87
2018-11-04T13:35:23.287Z,41.17
2018-11-04T13:37:51.668Z,42.14
2018-11-04T13:40:20.365Z,41.58
2018-11-04T13:42:48.780Z,42.03
2018-11-04T13:45:17.193Z,42.40
2018-11-04T13:47:45.798Z,42.16
2018-11-04T13:50:14.451Z,42.84
2018-11-04T13:52:43.872Z,42.75
2018-11-04T13:55:12.740Z,42.84
2018-11-04T13:57:41.143Z,42.94
2018-11-04T14:00:13.499Z,43.09
2018-11-04T14:02:42.731Z,42.71
2018-11-04T14:05:11.153Z,42.99
2018-11-04T14:07:40.061Z,43.09
2018-11-04T14:10:10.084Z,43.68
2018-11-04T14:12:38.859Z,43.89
2018-11-04T14:15:07.922Z,43.53
2018-11-04T14:17:36.313Z,43.40
2018-11-04T14:20:07.329Z,43.63
2018-11-04T14:22:35.857Z,43.65
2018-11-04T14:25:04.958Z,43.77
2018-11-04T14:27:33.397Z,44.29
2018-11-04T14:30:02.252Z,44.32
2018-11-04T14:32:30.729Z,43.65
2018-11-04T14:34:59.595Z,43.96
2018-11-04T14:37:28.446Z,43.88
2018-11-04T14:39:56.918Z,44.62
2018-11-04T14:42:25.476Z,44.08
2018-11-04T14:44:53.830Z,44.64
2018-11-04T14:47:22.468Z,44.82
2018-11-04T14:49:50.872Z,44.58
2018-11-04T14:52:19.286Z,45.12
2018-11-04T14:54:47.806Z,44.41
2018-11-04T14:57:16.248Z,44.77
2018-11-04T14:59:45.547Z,44.75
2018-11-04T15:02:14.102Z,44.98
2018-11-04T15:04:42.608Z,45.02
2018-11-04T15:07:11.345Z,45.24
2018-11-04T15:09:39.833Z,44.81
2018-11-04T15:12:08.824Z,45.09
2018-11-04T15:14:37.546Z,45.79
2018-11-04T15:17:06.274Z,45.12
2018-11-04T15:19:34.958Z,45.09
2018-11-04T15:22:03.698Z,45.24
2018-11-04T15:24:32.659Z,45.52
2018-11-04T15:27:01.413Z,46.13
2018-11-04T15:29:30.024Z,46.18
2018-11-04T15:31:58.498Z,45.36
2018-11-04T15:34:27.197Z,46.30
2018-11-04T15:36:55.489Z,46.17
2018-11-04T15:39:23.913Z,46.18
2018-11-04T15:41:52.414Z,46.37
2018-11-04T15:44:20.936Z,45.64
2018-11-04T15:46:49.328Z,46.44
2018-11-04T15:49:17.742Z,46.12
2018-11-04T15:51:46.263Z,45.94
2018-11-04T15:54:14.821Z,46.35
2018-11-04T15:56:43.474Z,46.49
2018-11-04T15:59:11.857Z,46.82
2018-11-04T16:01:40.968Z,46.04
2018-11-04T16:04:09.762Z,46.33
2018-11-04T16:06:38.300Z,46.42
2018-11-04T16:09:09.239Z,46.83
2018-11-04T16:11:37.820Z,46.54
2018-11-04T16:14:06.268Z,47.41
2018-11-04T16:16:34.837Z,47.52
2018-11-04T16:19:03.396Z,47.08
2018-11-04T16:21:31.904Z,47.71
2018-11-04T16:24:00.338Z,47.49
2018-11-04T16:26:28.780Z,47.62
2018-11-04T16:28:57.307Z,47.40
2018-11-04T16:31:25.800Z,47.84
2018-11-04T16:33:54.406Z,47.21
2018-11-04T16:36:22.943Z,47.34
2018-11-04T16:38:51.639Z,47.78
2018-11-04T16:41:20.144Z,47.81
2018-11-04T16:43:49.046Z,48.17
2018-11-04T16:46:17.391Z,48.16
2018-11-04T16:48:45.943Z,47.83
2018-11-04T16:51:14.449Z,48.40
2018-11-04T16:53:42.949Z,48.66
2018-11-04T16:56:11.492Z,48.36
2018-11-04T16:58:39.837Z,48.04
2018-11-04T17:01:09.231Z,48.33
2018-11-04T17:03:38.687Z,48.62
2018-11-04T17:06:07.621Z,48.79
2018-11-04T17:08:36.276Z,48.56
2018-11-04T17:11:04.926Z,48.66
2018-11-04T17:13:34.230Z,49.22
2018-11-04T17:16:02.706Z,48.61
2018-11-04T17:18:31.576Z,48.79
2018-11-04T17:21:00.345Z,48.86
2018-11-04T17:23:28.791Z,49.28
2018-11-04T17:25:57.503Z,49.63
2018-11-04T17:28:26.896Z,49.17
2018-11-04T17:30:55.462Z,49.47
2018-11-04T17:33:24.288Z,49.57
2018-11-04T17:35:52.741Z,49.63
2018-11-04T17:38:21.384Z,49.23
2018-11-04T17:40:50.275Z,49.55
2018-11-04T17:43:19.157Z,50.12
2018-11-04T17:45:47.590Z,49.92
2018-11-04T17:48:16.053Z,49.55
2018-11-04T17:50:44.734Z,50.20
2018-11-04T17:53:13.383Z,50.05
2018-11-04T17:55:41.769Z,49.72
2018-11-04T17:58:10.162Z,49.78
2018-11-04T18:00:38.620Z,50.07
2018-11-04T18:03:07.176Z,50.35
2018-11-04T18:05:35.701Z,50.60
2018-11-04T18:08:04.782Z,50.26
2018-11-04T18:10:33.294Z,50.58
2018-11-04T18:13:01.708Z,50.91
2018-11-04T18:15:30.406Z,50.88
2018-11-04T18:17:59.044Z,50.46
2018-11-04T18:20:27.477Z,50.22
2018-11-04T18:23:04.563Z,50.32
2018-11-04T18:25:33.125Z,51.21
2018-11-04T18:28:01.599Z,50.85
2018-11-04T18:30:30.333Z,51.21
2018-11-04T18:32:58.832Z,50.94
2018-11-04T18:35:27.816Z,50.91
2018-11-04T18:37:56.420Z,50.93
2018-11-04T18:40:24.840Z,50.80
2018-11-04T18:42:53.404Z,50.98
2018-11-04T18:45:21.935Z,51.23
2018-11-04T18:47:50.641Z,51.09
2018-11-04T18:50:19.165Z,51.22
2018-11-04T18:52:47.929Z,51.63
2018-11-04T18:55:16.405Z,51.34
2018-11-04T18:57:45.613Z,51.35
2018-11-04T19:00:15.707Z,51.52
2018-11-04T19:02:44.831Z,51.66
2018-11-04T19:05:13.383Z,51.75
2018-11-04T19:07:41.922Z,51.94
2018-11-04T19:10:12.397Z,51.91
2018-11-04T19:12:41.085Z,52.16
2018-11-04T19:15:10.104Z,52.20
2018-11-04T19:17:38.789Z,51.92
2018-11-04T19:20:09.749Z,51.73
2018-11-04T19:22:38.582Z,51.47
2018-11-04T19:25:08.497Z,51.73
2018-11-04T19:27:37.337Z,51.90
2018-11-04T19:30:08.567Z,51.62
2018-11-04T19:32:37.095Z,52.05
2018-11-04T19:35:07.042Z,51.77
2018-11-04T19:37:35.454Z,51.81
2018-11-04T19:40:05.340Z,52.05
2018-11-04T19:42:33.900Z,52.27
2018-11-04T19:45:02.629Z,52.35
2018-11-04T19:47:31.090Z,52.39
2018-11-04T19:49:59.559Z,52.74
2018-11-04T19:52:28.472Z,52.20
2018-11-04T19:54:57.031Z,52.36
2018-11-04T19:57:27.808Z,52.82
2018-11-04T19:59:57.200Z,52.39
2018-11-04T20:02:25.905Z,52.68
2018-11-04T20:04:55.081Z,52.97
2018-11-04T20:07:23.763Z,52.71
2018-11-04T20:09:52.264Z,52.60
2018-11-04T20:12:26.284Z,52.82
2018-11-04T20:14:54.953Z,53.10
2018-11-04T20:17:23.519Z,53.00
2018-11-04T20:19:57.774Z,52.90
2018-11-04T20:22:26.372Z,52.71
2018-11-04T20:25:00.899Z,52.97
2018-11-04T20:27:29.371Z,53.10
2018-11-04T20:29:57.856Z,53.30
2018-11-04T20:32:32.116Z,53.48
2018-11-04T20:35:00.845Z,53.42
2018-11-04T20:37:29.496Z,53.50
2018-11-04T20:40:03.749Z,53.41
2018-11-04T20:42:32.422Z,53.21
2018-11-04T20:45:01.168Z,53.43
2018-11-04T20:47:35.325Z,53.49
2018-11-04T20:50:10.577Z,53.66
2018-11-04T20:52:39.700Z,53.58
2018-11-04T20:55:08.175Z,53.37
2018-11-04T20:57:38.644Z,53.34
2018-11-04T21:00:10.865Z,53.76
2018-11-04T21:02:39.814Z,53.96
2018-11-04T21:05:08.063Z,53.68
2018-11-04T21:07:36.523Z,53.71
2018-11-04T21:10:06.939Z,53.69
2018-11-04T21:12:35.237Z,53.76
2018-11-04T21:15:03.963Z,53.88
2018-11-04T21:17:32.728Z,54.10
2018-11-04T21:20:01.402Z,54.15
2018-11-04T21:22:29.789Z,54.10
2018-11-04T21:24:58.219Z,53.87
2018-11-04T21:27:26.679Z,54.16
2018-11-04T21:29:55.441Z,54.17
2018-11-04T21:32:23.750Z,53.70
2018-11-04T21:34:55.429Z,53.99
2018-11-04T21:37:24.514Z,54.28
2018-11-04T21:39:53.358Z,54.64
2018-11-04T21:42:22.514Z,54.38
2018-11-04T21:44:50.962Z,54.06
2018-11-04T21:47:19.297Z,54.25
2018-11-04T21:49:47.954Z,54.20
2018-11-04T21:52:16.414Z,54.16
2018-11-04T21:54:44.849Z,54.68
2018-11-04T21:57:13.842Z,54.29
2018-11-04T21:59:42.298Z,54.46
2018-11-04T22:02:10.742Z,54.72
2018-11-04T22:04:39.266Z,54.67
2018-11-04T22:07:07.610Z,55.10
2018-11-04T22:09:36.035Z,54.87
2018-11-04T22:12:04.724Z,54.95
2018-11-04T22:14:33.129Z,54.75
2018-11-04T22:17:01.555Z,54.45
2018-11-04T22:19:30.010Z,54.96
2018-11-04T22:21:58.449Z,54.74
2018-11-04T22:24:26.850Z,55.13
2018-11-04T22:26:55.270Z,54.94
2018-11-04T22:29:23.652Z,55.23
2018-11-04T22:31:52.054Z,54.61
2018-11-04T22:34:20.492Z,55.18
2018-11-04T22:36:48.884Z,55.06
2018-11-04T22:39:17.341Z,54.79
2018-11-04T22:41:45.774Z,55.23
2018-11-04T22:44:14.162Z,54.79
2018-11-04T22:46:42.719Z,54.82
2018-11-04T22:49:11.106Z,55.03
2018-11-04T22:51:39.525Z,54.96
2018-11-04T22:54:07.987Z,55.29
2018-11-04T22:56:36.482Z,55.17
2018-11-04T22:59:05.530Z,55.00
2018-11-04T23:01:34.571Z,55.18
2018-11-04T23:04:03.039Z,54.94
2018-11-04T23:06:31.458Z,55.36
2018-11-04T23:08:59.810Z,55.39
2018-11-04T23:11:28.191Z,55.26
2018-11-04T23:13:56.611Z,55.34
2018-11-04T23:16:24.992Z,55.43
2018-11-04T23:18:53.426Z,55.52
2018-11-04T23:21:21.852Z,55.40
2018-11-04T23:23:50.279Z,55.78
2018-11-04T23:26:18.677Z,55.46
2018-11-04T23:28:47.069Z,55.47
2018-11-04T23:31:15.974Z,55.87
2018-11-04T23:33:44.382Z,55.61
2018-11-04T23:36:12.904Z,55.57
2018-11-04T23:38:41.266Z,55.75
2018-11-04T23:41:09.811Z,55.75
2018-11-04T23:43:38.206Z,55.61
2018-11-04T23:46:06.729Z,55.91
2018-11-04T23:48:35.141Z,55.80
2018-11-04T23:51:03.600Z,55.72
2018-11-04T23:53:31.989Z,55.89
2018-11-04T23:56:00.449Z,55.57
2018-11-04T23:58:28.814Z,56.09
